Terminal Aerodrome Forecast
Issued by NWS Atlanta, GA

Home | Current Version | Previous Version | Text Only | Print | Product List | Glossary On
Versions: 1 2 3 4 5 6 7 8 9 10 11 12 13 14 15 16 17
987
FTUS42 KFFC 220538
TAFMCN
TAF
KMCN 220538Z 2206/2306 15009KT P6SM FEW050 FEW250
     FM221000 15004KT 4SM BR OVC012
     FM221200 14004KT 4SM BR OVC008
     FM221700 19007KT P6SM BKN020 BKN050
     FM222000 20007KT P6SM SCT035 BKN080
     FM230000 14005KT P6SM SCT050 SCT080
     FM230400 12004KT P6SM SCT250=

USA.gov is the U.S. government's official web portal to all federal, state and local government web resources and services.